Time;durP1;ratioP1;P1;durP2;ratioP2;P2;SDS_P1;SDS_P2;PMS_P1;PMS_P2;Temp;Humidity;BMP_temperature;BMP_pressure;BME280_temperature;BME280_humidity;BME280_pressure;Samples;Min_cycle;Max_cycle;Signal;HPM_P1;HPM_P2
2021/11/20 00:00:21;;;;;;;36.47;21.10;;;;;;;;;;5015395;28;20026;-65
2021/11/20 00:02:47;;;;;;;34.72;19.55;;;;;;;;;;5012094;28;20449;-65
2021/11/20 00:05:16;;;;;;;36.55;19.55;;;;;;;;;;5012379;28;20053;-65
2021/11/20 00:07:42;;;;;;;;;;;;;;;;;;5013003;28;20052;-65
2021/11/20 00:10:09;;;;;;;34.65;19.42;;;;;;;;;;5013608;28;20003;-64
2021/11/20 00:12:36;;;;;;;34.60;19.80;;;;;;;;;;5013503;28;20444;-64
2021/11/20 00:15:05;;;;;;;38.40;19.15;;;;;;;;;;5014665;28;20433;-64
2021/11/20 00:17:32;;;;;;;37.10;20.77;;;;;;;;;;5014928;28;20047;-65
2021/11/20 00:19:58;;;;;;;37.10;21.58;;;;;;;;;;5015096;28;20539;-64
2021/11/20 00:22:33;;;;;;;37.60;21.77;;;;;;;;;;5013504;28;20029;-65
2021/11/20 00:25:02;;;;;;;37.88;22.05;;;;;;;;;;5015008;28;20030;-66
2021/11/20 00:27:34;;;;;;;38.50;21.40;;;;;;;;;;5013705;28;20025;-65
2021/11/20 00:30:02;;;;;;;;;;;;;;;;;;;;;
2021/11/20 00:32:29;;;;;;;40.30;20.15;;;;;;;;;;5014782;28;20038;-65
2021/11/20 00:34:59;;;;;;;42.70;21.25;;;;;;;;;;5014797;28;20022;-65
2021/11/20 00:37:25;;;;;;;38.70;20.20;;;;;;;;;;5014642;28;20033;-64
2021/11/20 00:39:51;;;;;;;38.13;20.05;;;;;;;;;;5013538;28;20018;-65
2021/11/20 00:42:18;;;;;;;33.85;20.67;;;;;;;;;;5013405;28;20106;-65
2021/11/20 00:44:44;;;;;;;36.40;19.35;;;;;;;;;;5014637;28;20049;-64
2021/11/20 00:47:10;;;;;;;39.13;22.02;;;;;;;;;;5013343;28;20026;-64
2021/11/20 00:49:36;;;;;;;37.42;20.60;;;;;;;;;;5014282;28;20478;-65
2021/11/20 00:52:02;;;;;;;36.42;20.77;;;;;;;;;;5013171;28;20022;-65
2021/11/20 00:54:29;;;;;;;39.85;21.58;;;;;;;;;;5013410;28;20474;-65
2021/11/20 00:56:55;;;;;;;39.22;22.10;;;;;;;;;;5014350;28;20033;-64
2021/11/20 00:59:21;;;;;;;37.17;20.65;;;;;;;;;;5013320;28;20022;-64
2021/11/20 01:01:50;;;;;;;37.83;21.13;;;;;;;;;;5013636;28;20022;-64
2021/11/20 01:04:16;;;;;;;;;;;;;;;;;;5014720;28;20478;-64
2021/11/20 01:06:43;;;;;;;38.22;20.08;;;;;;;;;;5029541;28;19913;-65
2021/11/20 01:09:13;;;;;;;34.20;19.00;;;;;;;;;;5014355;28;20048;-65
2021/11/20 01:11:41;;;;;;;34.45;20.83;;;;;;;;;;5012202;28;20087;-64
2021/11/20 01:14:09;;;;;;;33.40;20.23;;;;;;;;;;5013920;28;20402;-65
2021/11/20 01:16:35;;;;;;;43.03;20.93;;;;;;;;;;5012960;28;20051;-65
2021/11/20 01:19:02;;;;;;;33.28;18.83;;;;;;;;;;5014166;28;20132;-65
2021/11/20 01:21:28;;;;;;;38.88;20.65;;;;;;;;;;5014117;28;20034;-64
2021/11/20 01:23:54;;;;;;;35.72;20.10;;;;;;;;;;5013660;28;20029;-65
2021/11/20 01:26:21;;;;;;;34.30;19.10;;;;;;;;;;5012681;28;20753;-64
2021/11/20 01:28:49;;;;;;;33.42;19.08;;;;;;;;;;5012630;28;20026;-64
2021/11/20 01:31:16;;;;;;;34.25;19.08;;;;;;;;;;5012596;28;20501;-64
2021/11/20 01:33:42;;;;;;;35.97;20.85;;;;;;;;;;5012053;28;20129;-65
2021/11/20 01:36:09;;;;;;;34.17;19.08;;;;;;;;;;5012593;28;20022;-65
2021/11/20 01:38:36;;;;;;;35.42;19.50;;;;;;;;;;5013668;28;20014;-65
2021/11/20 01:41:02;;;;;;;33.42;19.13;;;;;;;;;;5013800;28;20096;-65
2021/11/20 01:43:28;;;;;;;34.30;18.58;;;;;;;;;;5013349;28;20029;-64
2021/11/20 01:45:56;;;;;;;37.38;19.65;;;;;;;;;;5013669;28;20021;-64
2021/11/20 01:48:22;;;;;;;32.33;19.23;;;;;;;;;;5013616;28;20037;-66
2021/11/20 01:50:49;;;;;;;30.48;18.02;;;;;;;;;;5012480;28;20610;-64
2021/11/20 01:53:20;;;;;;;36.40;20.05;;;;;;;;;;5011797;28;20451;-64
2021/11/20 01:55:50;;;;;;;33.42;18.02;;;;;;;;;;5012371;28;20018;-64
2021/11/20 01:58:22;;;;;;;36.88;17.98;;;;;;;;;;5013380;28;20050;-64
2021/11/20 02:01:06;;;;;;;33.20;18.55;;;;;;;;;;5013411;28;20363;-65
2021/11/20 02:03:44;;;;;;;32.38;17.50;;;;;;;;;;5013149;28;20108;-63
2021/11/20 02:06:19;;;;;;;34.88;20.10;;;;;;;;;;5013349;28;20033;-64
2021/11/20 02:08:48;;;;;;;34.95;19.15;;;;;;;;;;5012052;28;20088;-64
2021/11/20 02:11:23;;;;;;;48.80;21.23;;;;;;;;;;5012687;28;20033;-64
2021/11/20 02:13:50;;;;;;;32.70;18.80;;;;;;;;;;5012582;28;20052;-65
2021/11/20 02:16:24;;;;;;;33.13;18.50;;;;;;;;;;5012941;28;20033;-65
2021/11/20 02:18:53;;;;;;;33.83;18.27;;;;;;;;;;5012921;28;20054;-65
2021/11/20 02:21:19;;;;;;;31.50;17.58;;;;;;;;;;5012839;28;20072;-64
2021/11/20 02:23:45;;;;;;;37.63;21.20;;;;;;;;;;5011578;28;20496;-65
2021/11/20 02:26:11;;;;;;;33.28;20.25;;;;;;;;;;5012982;28;20052;-65
2021/11/20 02:28:37;;;;;;;35.28;18.83;;;;;;;;;;5011586;28;20034;-63
2021/11/20 02:31:04;;;;;;;31.60;18.05;;;;;;;;;;5012874;28;20153;-65
2021/11/20 02:33:35;;;;;;;36.28;21.45;;;;;;;;;;5012460;28;20026;-65
2021/11/20 02:36:03;;;;;;;35.80;20.55;;;;;;;;;;5011648;28;20032;-64
2021/11/20 02:38:31;;;;;;;36.80;20.10;;;;;;;;;;5011520;28;20030;-64
2021/11/20 02:40:58;;;;;;;36.70;18.95;;;;;;;;;;5011562;28;20026;-64
2021/11/20 02:43:25;;;;;;;34.33;20.42;;;;;;;;;;5011140;28;20026;-65
2021/11/20 02:45:53;;;;;;;37.00;20.05;;;;;;;;;;5012955;28;20096;-64
2021/11/20 02:48:19;;;;;;;35.55;18.35;;;;;;;;;;5012852;28;20030;-65
2021/11/20 02:50:48;;;;;;;34.33;18.23;;;;;;;;;;5012892;28;20688;-64
2021/11/20 02:53:20;;;;;;;36.95;20.48;;;;;;;;;;5012152;28;20022;-65
2021/11/20 02:55:47;;;;;;;35.55;20.05;;;;;;;;;;5012558;28;20022;-65
2021/11/20 02:58:15;;;;;;;41.33;21.47;;;;;;;;;;5012635;28;20018;-64
2021/11/20 03:00:41;;;;;;;34.20;20.30;;;;;;;;;;5012457;28;20050;-64
2021/11/20 03:03:07;;;;;;;36.10;20.55;;;;;;;;;;5012231;28;20055;-64
2021/11/20 03:05:33;;;;;;;34.90;20.83;;;;;;;;;;5014033;28;20033;-65
2021/11/20 03:07:59;;;;;;;37.30;21.00;;;;;;;;;;5015528;28;20060;-65
2021/11/20 03:10:25;;;;;;;34.88;20.40;;;;;;;;;;5016669;28;20072;-64
2021/11/20 03:12:51;;;;;;;35.88;20.48;;;;;;;;;;5016175;28;20030;-64
2021/11/20 03:15:17;;;;;;;36.47;20.08;;;;;;;;;;5016498;28;20026;-64
2021/11/20 03:17:43;;;;;;;33.20;19.98;;;;;;;;;;5016329;28;20026;-68
2021/11/20 03:20:11;;;;;;;34.95;20.05;;;;;;;;;;5016368;28;20397;-63
2021/11/20 03:22:42;;;;;;;36.53;20.23;;;;;;;;;;5014757;28;20029;-64
2021/11/20 03:25:09;;;;;;;38.03;21.27;;;;;;;;;;5015160;28;20105;-64
2021/11/20 03:27:35;;;;;;;36.50;21.75;;;;;;;;;;5016284;28;20502;-64
2021/11/20 03:30:02;;;;;;;36.30;20.88;;;;;;;;;;5016190;28;20083;-65
2021/11/20 03:32:28;;;;;;;41.72;23.65;;;;;;;;;;5015824;28;20030;-65
2021/11/20 03:34:54;;;;;;;35.47;20.83;;;;;;;;;;5015878;28;20104;-64
2021/11/20 03:37:22;;;;;;;37.95;21.33;;;;;;;;;;5014747;28;20026;-64
2021/11/20 03:39:49;;;;;;;36.05;20.20;;;;;;;;;;5015961;28;20046;-64
2021/11/20 03:42:15;;;;;;;38.28;20.48;;;;;;;;;;5014634;28;20470;-65
2021/11/20 03:44:41;;;;;;;41.47;22.02;;;;;;;;;;5015545;28;20026;-65
2021/11/20 03:47:07;;;;;;;38.53;22.90;;;;;;;;;;5014602;28;20037;-64
2021/11/20 03:49:33;;;;;;;39.35;22.67;;;;;;;;;;5014636;28;20034;-64
2021/11/20 03:51:59;;;;;;;37.17;21.23;;;;;;;;;;5015340;28;20065;-64
2021/11/20 03:54:25;;;;;;;37.67;21.42;;;;;;;;;;5014293;28;20497;-65
2021/11/20 03:56:51;;;;;;;43.40;22.52;;;;;;;;;;5015691;28;20486;-65
2021/11/20 03:59:18;;;;;;;35.58;19.88;;;;;;;;;;5015792;28;20022;-64
2021/11/20 04:01:44;;;;;;;37.10;21.55;;;;;;;;;;5015510;28;20152;-65
2021/11/20 04:04:10;;;;;;;39.35;22.23;;;;;;;;;;5015546;28;20474;-64
2021/11/20 04:06:36;;;;;;;39.15;21.42;;;;;;;;;;5014223;28;20026;-64
2021/11/20 04:09:03;;;;;;;41.50;22.52;;;;;;;;;;5014089;28;20038;-64
2021/11/20 04:11:32;;;;;;;38.67;22.85;;;;;;;;;;5015169;28;20505;-64
2021/11/20 04:13:59;;;;;;;41.60;23.10;;;;;;;;;;5013572;28;20037;-64
2021/11/20 04:16:26;;;;;;;40.63;24.60;;;;;;;;;;5015225;28;20022;-64
2021/11/20 04:18:53;;;;;;;40.10;22.90;;;;;;;;;;5015311;28;20022;-65
2021/11/20 04:21:19;;;;;;;40.67;22.73;;;;;;;;;;5015540;28;20033;-64
2021/11/20 04:23:46;;;;;;;37.25;22.92;;;;;;;;;;5013863;28;20120;-64
2021/11/20 04:26:13;;;;;;;36.00;21.40;;;;;;;;;;5014024;28;20041;-64
2021/11/20 04:28:39;;;;;;;36.08;22.15;;;;;;;;;;5014509;28;20401;-64
2021/11/20 04:31:05;;;;;;;35.85;20.25;;;;;;;;;;5013872;28;20021;-65
2021/11/20 04:33:31;;;;;;;39.50;21.92;;;;;;;;;;5014319;28;20034;-64
2021/11/20 04:35:57;;;;;;;36.50;21.60;;;;;;;;;;5015076;28;20094;-65
2021/11/20 04:38:23;;;;;;;35.25;19.98;;;;;;;;;;5014811;28;20029;-65
2021/11/20 04:40:50;;;;;;;36.95;20.25;;;;;;;;;;5013743;28;20041;-64
2021/11/20 04:43:16;;;;;;;38.58;21.27;;;;;;;;;;5013268;28;20026;-66
2021/11/20 04:45:43;;;;;;;35.60;20.50;;;;;;;;;;5014827;28;20371;-64
2021/11/20 04:48:09;;;;;;;33.75;18.70;;;;;;;;;;5014638;28;20103;-65
2021/11/20 04:50:37;;;;;;;35.33;19.48;;;;;;;;;;5014697;28;20074;-64
2021/11/20 04:53:03;;;;;;;37.08;22.00;;;;;;;;;;5014352;28;20070;-65
2021/11/20 04:55:29;;;;;;;37.67;20.48;;;;;;;;;;5014475;28;20034;-64
2021/11/20 04:57:56;;;;;;;34.28;20.52;;;;;;;;;;5014792;28;20022;-64
2021/11/20 05:00:25;;;;;;;35.35;20.15;;;;;;;;;;5013223;28;20041;-64
2021/11/20 05:02:51;;;;;;;34.50;19.52;;;;;;;;;;5014333;28;20108;-65
2021/11/20 05:05:17;;;;;;;33.28;18.13;;;;;;;;;;5014486;28;20497;-65
2021/11/20 05:07:43;;;;;;;31.75;18.67;;;;;;;;;;5013241;28;20028;-64
2021/11/20 05:10:11;;;;;;;31.92;19.45;;;;;;;;;;5013305;28;20405;-65
2021/11/20 05:12:38;;;;;;;31.13;18.03;;;;;;;;;;5013381;28;20458;-64
2021/11/20 05:15:05;;;;;;;32.58;19.05;;;;;;;;;;5014108;28;20320;-65
2021/11/20 05:17:31;;;;;;;31.27;17.92;;;;;;;;;;5014142;28;20022;-65
2021/11/20 05:19:57;;;;;;;32.20;18.02;;;;;;;;;;5013234;28;20024;-64
2021/11/20 05:22:23;;;;;;;33.70;18.42;;;;;;;;;;5013902;28;20494;-65
2021/11/20 05:24:49;;;;;;;33.20;19.45;;;;;;;;;;5012798;28;20029;-65
2021/11/20 05:27:15;;;;;;;32.80;18.67;;;;;;;;;;5014013;28;20053;-64
2021/11/20 05:29:53;;;;;;;37.67;20.10;;;;;;;;;;5012457;28;20386;-64
2021/11/20 05:32:19;;;;;;;29.98;16.83;;;;;;;;;;5013760;28;20392;-64
2021/11/20 05:34:45;;;;;;;29.75;16.40;;;;;;;;;;5013921;28;20030;-64
2021/11/20 05:37:11;;;;;;;36.00;22.23;;;;;;;;;;5013877;28;20028;-65
2021/11/20 05:39:38;;;;;;;31.65;18.13;;;;;;;;;;5012546;28;20023;-64
2021/11/20 05:42:04;;;;;;;27.73;15.98;;;;;;;;;;5013598;28;20030;-64
2021/11/20 05:44:31;;;;;;;29.85;18.23;;;;;;;;;;5012739;28;20026;-65
2021/11/20 05:47:00;;;;;;;30.15;16.65;;;;;;;;;;5012741;28;20026;-65
2021/11/20 05:49:30;;;;;;;30.80;16.77;;;;;;;;;;5012426;28;20455;-65
2021/11/20 05:51:56;;;;;;;29.17;17.30;;;;;;;;;;5012284;28;20033;-64
2021/11/20 05:54:23;;;;;;;30.52;18.30;;;;;;;;;;5013432;28;20448;-64
2021/11/20 05:56:49;;;;;;;32.25;17.58;;;;;;;;;;5009141;28;20037;-64
2021/11/20 05:59:15;;;;;;;33.35;18.42;;;;;;;;;;5002994;28;20041;-64
2021/11/20 06:01:42;;;;;;;30.50;17.38;;;;;;;;;;5001297;28;20531;-64
2021/11/20 06:04:08;;;;;;;32.67;18.30;;;;;;;;;;5013138;28;20053;-64
2021/11/20 06:06:34;;;;;;;30.10;18.38;;;;;;;;;;5001146;28;20034;-65
2021/11/20 06:09:00;;;;;;;27.95;15.95;;;;;;;;;;5010287;28;20048;-64
2021/11/20 06:11:26;;;;;;;28.25;15.23;;;;;;;;;;5011468;28;20449;-64
2021/11/20 06:16:21;;;;;;;29.30;16.20;;;;;;;;;;5028575;28;20072;-64
2021/11/20 06:18:47;;;;;;;30.52;17.33;;;;;;;;;;5031554;28;20065;-64
2021/11/20 06:21:13;;;;;;;27.40;14.60;;;;;;;;;;5031445;28;20018;-64
2021/11/20 06:23:40;;;;;;;29.58;16.98;;;;;;;;;;5031194;28;20081;-64
2021/11/20 06:26:07;;;;;;;27.45;15.30;;;;;;;;;;5031377;28;20021;-62
2021/11/20 06:28:34;;;;;;;29.58;16.88;;;;;;;;;;5030825;28;20104;-62
2021/11/20 06:31:01;;;;;;;27.73;15.27;;;;;;;;;;5031311;28;20068;-62
2021/11/20 06:33:27;;;;;;;29.33;16.75;;;;;;;;;;5031143;28;20718;-61
2021/11/20 06:35:53;;;;;;;28.08;15.75;;;;;;;;;;5031147;28;20660;-63
2021/11/20 06:38:20;;;;;;;28.83;15.90;;;;;;;;;;5031094;28;20107;-63
2021/11/20 06:40:47;;;;;;;28.20;15.88;;;;;;;;;;5021810;28;20025;-63
2021/11/20 06:43:14;;;;;;;31.15;17.40;;;;;;;;;;5019624;28;20033;-63
2021/11/20 06:45:43;;;;;;;28.92;15.02;;;;;;;;;;5025820;28;20535;-63
2021/11/20 06:48:09;;;;;;;29.42;16.48;;;;;;;;;;5031092;28;20531;-63
2021/11/20 06:50:37;;;;;;;32.45;17.45;;;;;;;;;;5031094;28;20026;-62
2021/11/20 06:53:04;;;;;;;29.48;16.52;;;;;;;;;;5030864;28;20076;-62
2021/11/20 06:55:31;;;;;;;31.23;16.90;;;;;;;;;;5031026;28;20037;-63
2021/11/20 06:58:09;;;;;;;29.92;17.17;;;;;;;;;;5030946;28;20026;-63
2021/11/20 07:00:37;;;;;;;32.13;17.13;;;;;;;;;;5031082;28;20155;-63
2021/11/20 07:03:04;;;;;;;29.60;17.10;;;;;;;;;;5030731;28;20071;-63
2021/11/20 07:05:32;;;;;;;29.37;17.63;;;;;;;;;;5030813;28;20021;-63
2021/11/20 07:07:58;;;;;;;30.83;16.98;;;;;;;;;;5029650;28;20036;-63
2021/11/20 07:10:25;;;;;;;29.40;17.35;;;;;;;;;;5029593;28;20025;-62
2021/11/20 07:12:52;;;;;;;30.30;18.08;;;;;;;;;;5030639;28;20029;-63
2021/11/20 07:15:19;;;;;;;29.02;15.40;;;;;;;;;;5030545;28;20026;-63
2021/11/20 07:17:45;;;;;;;29.83;16.70;;;;;;;;;;5030698;28;20032;-63
2021/11/20 07:20:12;;;;;;;29.02;17.20;;;;;;;;;;5029552;28;20116;-62
2021/11/20 07:22:38;;;;;;;27.63;15.20;;;;;;;;;;5030512;28;20029;-62
2021/11/20 07:25:04;;;;;;;30.27;17.13;;;;;;;;;;5031005;28;20026;-63
2021/11/20 07:27:31;;;;;;;28.77;16.67;;;;;;;;;;5021396;28;20105;-62
2021/11/20 07:29:57;;;;;;;32.33;18.42;;;;;;;;;;5017628;28;20391;-62
2021/11/20 07:32:26;;;;;;;31.58;17.67;;;;;;;;;;5022304;28;20032;-63
2021/11/20 07:34:52;;;;;;;34.17;18.52;;;;;;;;;;5017841;28;20500;-65
2021/11/20 07:37:18;;;;;;;31.98;20.30;;;;;;;;;;5010862;28;20030;-62
2021/11/20 07:39:44;;;;;;;34.85;20.65;;;;;;;;;;5009409;28;20024;-62
2021/11/20 07:42:10;;;;;;;33.05;18.75;;;;;;;;;;5009091;28;20022;-62
2021/11/20 07:44:36;;;;;;;34.15;20.17;;;;;;;;;;5011107;28;20461;-71
2021/11/20 07:47:03;;;;;;;34.80;20.63;;;;;;;;;;5010068;28;20028;-70
2021/11/20 07:49:28;;;;;;;34.13;19.85;;;;;;;;;;5009741;28;20397;-69
2021/11/20 07:51:55;;;;;;;37.10;21.08;;;;;;;;;;5013003;28;20030;-68
2021/11/20 07:54:20;;;;;;;38.75;23.30;;;;;;;;;;5013356;28;20030;-69
2021/11/20 07:56:46;;;;;;;40.78;22.85;;;;;;;;;;5014796;28;20021;-69
2021/11/20 07:59:14;;;;;;;37.33;22.15;;;;;;;;;;5025828;28;20021;-68
2021/11/20 08:01:41;;;;;;;41.87;22.30;;;;;;;;;;5032951;28;20053;-68
2021/11/20 08:04:07;;;;;;;44.22;26.10;;;;;;;;;;5034258;28;20260;-69
2021/11/20 08:06:33;;;;;;;44.22;26.33;;;;;;;;;;5032774;28;20070;-68
2021/11/20 08:09:03;;;;;;;44.30;24.42;;;;;;;;;;5034328;28;20021;-69
2021/11/20 08:11:33;;;;;;;45.10;25.98;;;;;;;;;;5034156;28;20029;-70
2021/11/20 08:14:00;;;;;;;41.78;25.02;;;;;;;;;;5033935;28;20021;-69
2021/11/20 08:16:26;;;;;;;44.38;25.95;;;;;;;;;;5032586;28;20331;-70
2021/11/20 08:18:52;;;;;;;46.45;26.67;;;;;;;;;;5034297;28;20022;-69
2021/11/20 08:21:18;;;;;;;44.78;27.23;;;;;;;;;;5034249;28;20029;-69
2021/11/20 08:23:45;;;;;;;49.00;27.35;;;;;;;;;;5032720;28;20504;-70
2021/11/20 08:26:11;;;;;;;45.97;28.88;;;;;;;;;;5032372;28;20033;-70
2021/11/20 08:28:37;;;;;;;50.55;29.27;;;;;;;;;;5013275;28;20040;-68
2021/11/20 08:31:04;;;;;;;53.13;31.02;;;;;;;;;;5012423;28;20393;-68
2021/11/20 08:33:31;;;;;;;51.72;28.88;;;;;;;;;;5013002;28;20568;-67
2021/11/20 08:35:57;;;;;;;50.50;30.77;;;;;;;;;;5017266;28;20053;-68
2021/11/20 08:38:24;;;;;;;48.03;28.67;;;;;;;;;;5033184;28;20018;-67
2021/11/20 08:40:50;;;;;;;52.70;29.35;;;;;;;;;;5033101;28;20432;-69
2021/11/20 08:43:17;;;;;;;53.67;29.98;;;;;;;;;;5032942;28;20029;-69
2021/11/20 08:45:47;;;;;;;56.05;29.15;;;;;;;;;;5031852;28;20045;-69
2021/11/20 08:48:16;;;;;;;52.25;31.48;;;;;;;;;;5028475;28;20392;-71
2021/11/20 08:50:43;;;;;;;54.05;29.90;;;;;;;;;;5012218;28;20148;-71
2021/11/20 08:53:09;;;;;;;59.07;30.90;;;;;;;;;;5013144;28;20030;-70
2021/11/20 08:55:36;;;;;;;54.50;30.33;;;;;;;;;;5013244;28;20026;-70
2021/11/20 08:58:04;;;;;;;56.40;30.13;;;;;;;;;;5014532;28;20156;-69
2021/11/20 09:00:32;;;;;;;54.90;29.17;;;;;;;;;;5033102;28;20071;-70
2021/11/20 09:03:08;;;;;;;51.92;29.23;;;;;;;;;;5031073;28;20443;-69
2021/11/20 09:05:37;;;;;;;48.38;27.08;;;;;;;;;;5029049;28;20436;-71
2021/11/20 09:08:09;;;;;;;55.67;29.10;;;;;;;;;;5031436;28;20103;-70
2021/11/20 09:10:41;;;;;;;53.53;28.95;;;;;;;;;;5032151;28;20025;-70
2021/11/20 09:13:13;;;;;;;52.00;28.27;;;;;;;;;;5031529;28;20417;-69
2021/11/20 09:15:41;;;;;;;52.40;28.95;;;;;;;;;;5031717;28;20032;-70
2021/11/20 09:18:08;;;;;;;50.50;28.48;;;;;;;;;;5032160;28;20104;-70
2021/11/20 09:20:34;;;;;;;54.75;29.90;;;;;;;;;;5032598;28;20029;-70
2021/11/20 09:23:01;;;;;;;48.17;28.70;;;;;;;;;;5032178;28;20026;-72
2021/11/20 09:25:27;;;;;;;55.15;31.08;;;;;;;;;;5032424;28;20416;-70
2021/11/20 09:27:53;;;;;;;52.42;28.88;;;;;;;;;;5031234;28;20051;-71
2021/11/20 09:30:25;;;;;;;56.15;29.00;;;;;;;;;;5032648;28;20021;-71
2021/11/20 09:32:51;;;;;;;46.95;27.33;;;;;;;;;;5031937;28;20017;-71
2021/11/20 09:35:17;;;;;;;49.45;28.05;;;;;;;;;;5032464;28;20020;-70
2021/11/20 09:37:43;;;;;;;47.30;25.60;;;;;;;;;;5032325;28;20489;-70
2021/11/20 09:40:10;;;;;;;46.10;25.58;;;;;;;;;;5030957;28;20017;-70
2021/11/20 09:42:38;;;;;;;45.33;26.40;;;;;;;;;;5032086;28;20043;-70
2021/11/20 09:45:07;;;;;;;45.55;25.98;;;;;;;;;;5032225;28;20481;-71
2021/11/20 09:47:38;;;;;;;40.33;21.05;;;;;;;;;;5031731;28;20346;-68
2021/11/20 09:50:07;;;;;;;40.28;22.75;;;;;;;;;;5032079;28;20036;-71
2021/11/20 09:52:33;;;;;;;38.55;21.65;;;;;;;;;;5032071;28;20397;-69
2021/11/20 09:54:59;;;;;;;43.08;23.17;;;;;;;;;;5031774;28;20512;-69
2021/11/20 09:57:27;;;;;;;38.97;22.33;;;;;;;;;;5030683;28;20040;-70
2021/11/20 09:59:53;;;;;;;43.70;22.17;;;;;;;;;;5031826;28;20037;-70
2021/11/20 10:02:28;;;;;;;38.85;22.77;;;;;;;;;;5031662;28;20029;-70
2021/11/20 10:04:54;;;;;;;38.55;23.55;;;;;;;;;;5031697;28;20033;-71
2021/11/20 10:07:31;;;;;;;37.38;22.00;;;;;;;;;;5031912;28;20029;-71
2021/11/20 10:10:02;;;;;;;40.03;24.10;;;;;;;;;;5031684;28;20115;-70
2021/11/20 10:12:33;;;;;;;38.70;23.50;;;;;;;;;;5031466;28;20424;-70
2021/11/20 10:15:04;;;;;;;39.35;22.90;;;;;;;;;;5031611;28;20033;-70
2021/11/20 10:17:32;;;;;;;39.88;21.15;;;;;;;;;;5030144;28;20148;-70
2021/11/20 10:20:18;;;;;;;39.03;23.65;;;;;;;;;;5031975;28;20466;-70
2021/11/20 10:23:14;;;;;;;39.97;23.48;;;;;;;;;;5030993;28;20030;-70
2021/11/20 10:25:54;;;;;;;37.45;20.67;;;;;;;;;;5013473;28;20037;-70
2021/11/20 10:28:39;;;;;;;36.88;21.80;;;;;;;;;;5030158;28;20025;-70
2021/11/20 10:31:15;;;;;;;41.45;24.35;;;;;;;;;;5031685;28;20028;-70
2021/11/20 10:33:44;;;;;;;42.10;25.83;;;;;;;;;;5029730;28;20021;-70
2021/11/20 10:36:13;;;;;;;38.50;22.85;;;;;;;;;;5030100;28;20032;-71
2021/11/20 10:38:45;;;;;;;38.85;23.17;;;;;;;;;;5029871;28;20048;-70
2021/11/20 10:41:17;;;;;;;41.60;25.35;;;;;;;;;;5029679;28;20108;-70
2021/11/20 10:43:53;;;;;;;38.10;23.02;;;;;;;;;;5031340;28;20032;-70
2021/11/20 10:46:19;;;;;;;39.53;23.33;;;;;;;;;;5031342;28;20033;-70
2021/11/20 10:48:48;;;;;;;40.03;24.00;;;;;;;;;;5030139;28;20041;-70
2021/11/20 10:51:32;;;;;;;40.63;24.08;;;;;;;;;;5030967;28;20472;-70
2021/11/20 10:54:18;;;;;;;40.60;25.17;;;;;;;;;;5031097;28;20032;-70
2021/11/20 10:56:44;;;;;;;39.88;22.17;;;;;;;;;;5000489;28;20034;-70
2021/11/20 10:59:22;;;;;;;38.03;22.58;;;;;;;;;;5029476;28;20059;-69
2021/11/20 11:02:06;;;;;;;40.55;24.58;;;;;;;;;;5030678;28;20056;-68
2021/11/20 11:04:44;;;;;;;36.40;22.77;;;;;;;;;;5030716;28;20039;-70
2021/11/20 11:07:14;;;;;;;37.63;23.30;;;;;;;;;;5029352;28;20026;-70
2021/11/20 11:09:42;;;;;;;37.33;23.27;;;;;;;;;;5029714;28;20489;-70
2021/11/20 11:12:25;;;;;;;34.80;20.83;;;;;;;;;;5030610;28;20028;-70
2021/11/20 11:14:55;;;;;;;39.50;23.42;;;;;;;;;;5030695;28;20026;-70
2021/11/20 11:17:24;;;;;;;35.53;21.48;;;;;;;;;;5029061;28;20036;-71
2021/11/20 11:20:04;;;;;;;38.60;23.15;;;;;;;;;;5029500;28;20478;-70
2021/11/20 11:22:34;;;;;;;38.40;24.23;;;;;;;;;;5029189;28;20029;-67
2021/11/20 11:25:08;;;;;;;38.58;22.10;;;;;;;;;;5029675;28;20083;-69
2021/11/20 11:27:35;;;;;;;35.97;21.88;;;;;;;;;;5033919;28;20096;-70
2021/11/20 11:30:04;;;;;;;38.30;23.13;;;;;;;;;;5034710;28;20021;-70
2021/11/20 11:32:33;;;;;;;37.30;22.75;;;;;;;;;;5032900;28;20021;-70
2021/11/20 11:35:08;;;;;;;39.88;24.45;;;;;;;;;;5032980;28;20392;-70
2021/11/20 11:37:40;;;;;;;38.28;23.27;;;;;;;;;;5033285;28;20036;-69
2021/11/20 11:40:24;;;;;;;38.50;23.38;;;;;;;;;;5034575;28;20027;-70
2021/11/20 11:42:55;;;;;;;36.88;22.83;;;;;;;;;;5034201;28;20028;-70
2021/11/20 11:45:38;;;;;;;39.17;22.80;;;;;;;;;;5034244;28;20370;-70
2021/11/20 11:48:26;;;;;;;36.03;20.85;;;;;;;;;;5034467;28;20519;-68
2021/11/20 11:51:15;;;;;;;39.10;24.30;;;;;;;;;;5034066;28;20025;-70
2021/11/20 11:53:56;;;;;;;41.80;24.90;;;;;;;;;;5026547;28;20064;-69
2021/11/20 11:56:30;;;;;;;40.53;26.50;;;;;;;;;;5033123;28;20041;-70
2021/11/20 11:59:09;;;;;;;40.38;24.48;;;;;;;;;;5034034;28;20025;-70
2021/11/20 12:01:54;;;;;;;42.92;26.60;;;;;;;;;;5033902;28;20029;-70
2021/11/20 12:04:29;;;;;;;40.30;24.60;;;;;;;;;;5033714;28;20417;-69
2021/11/20 12:07:10;;;;;;;43.33;26.05;;;;;;;;;;5034090;28;20025;-70
2021/11/20 12:09:45;;;;;;;38.35;22.08;;;;;;;;;;5033837;28;20040;-70
2021/11/20 12:12:13;;;;;;;45.40;25.15;;;;;;;;;;5032597;28;20121;-72
2021/11/20 12:14:41;;;;;;;43.65;26.08;;;;;;;;;;5056729;22;20036;-66
2021/11/20 12:17:25;;;;;;;44.88;26.45;;;;;;;;;;5034641;28;20029;-67
2021/11/20 12:20:03;;;;;;;47.05;29.63;;;;;;;;;;5035750;28;20025;-67
2021/11/20 12:22:46;;;;;;;45.60;28.00;;;;;;;;;;5034245;28;20021;-68
2021/11/20 12:25:11;;;;;;;42.83;26.85;;;;;;;;;;5037156;28;20022;-67
2021/11/20 12:27:58;;;;;;;41.30;25.00;;;;;;;;;;5034845;28;20052;-67
2021/11/20 12:30:36;;;;;;;42.10;26.23;;;;;;;;;;5035074;28;20064;-68
2021/11/20 12:33:02;;;;;;;46.25;27.50;;;;;;;;;;5035204;28;20092;-67
2021/11/20 12:35:28;;;;;;;42.45;27.13;;;;;;;;;;5035293;28;20125;-67
2021/11/20 12:37:57;;;;;;;46.33;28.75;;;;;;;;;;5033123;28;20029;-68
2021/11/20 12:40:47;;;;;;;47.00;29.45;;;;;;;;;;5036020;28;20059;-68
2021/11/20 12:43:22;;;;;;;47.53;27.63;;;;;;;;;;5034213;28;20026;-67
2021/11/20 12:45:48;;;;;;;46.75;29.63;;;;;;;;;;5033942;28;20029;-67
2021/11/20 12:48:17;;;;;;;44.58;27.25;;;;;;;;;;5033862;28;20026;-68
2021/11/20 12:50:43;;;;;;;42.60;25.80;;;;;;;;;;5034151;28;20032;-67
2021/11/20 12:53:22;;;;;;;41.90;25.85;;;;;;;;;;5033726;28;20025;-67
2021/11/20 12:55:48;;;;;;;47.97;26.17;;;;;;;;;;5034957;28;20497;-67
2021/11/20 12:58:19;;;;;;;44.78;27.35;;;;;;;;;;5036231;28;20025;-67
2021/11/20 13:00:48;;;;;;;39.63;26.10;;;;;;;;;;5035833;28;20053;-67
2021/11/20 13:03:14;;;;;;;46.35;26.88;;;;;;;;;;5035007;28;20040;-68
2021/11/20 13:05:40;;;;;;;47.38;28.33;;;;;;;;;;5035981;28;20021;-67
2021/11/20 13:08:08;;;;;;;42.72;25.00;;;;;;;;;;5035358;28;20040;-66
2021/11/20 13:10:37;;;;;;;45.58;25.13;;;;;;;;;;5035225;28;20025;-68
2021/11/20 13:13:15;;;;;;;44.47;25.48;;;;;;;;;;5034631;28;20036;-69
2021/11/20 13:15:41;;;;;;;42.45;24.85;;;;;;;;;;5034685;28;20481;-69
2021/11/20 13:18:07;;;;;;;45.50;27.00;;;;;;;;;;5034134;28;20084;-68
2021/11/20 13:20:36;;;;;;;44.85;27.25;;;;;;;;;;5035674;28;20032;-69
2021/11/20 13:23:02;;;;;;;43.58;25.63;;;;;;;;;;5034360;28;20017;-68
2021/11/20 13:25:28;;;;;;;45.63;25.23;;;;;;;;;;5036897;28;20499;-66
2021/11/20 13:27:57;;;;;;;45.63;25.88;;;;;;;;;;5035828;28;20056;-67
2021/11/20 13:30:26;;;;;;;43.67;26.08;;;;;;;;;;5035312;28;20033;-67
2021/11/20 13:32:52;;;;;;;;;;;;;;;;;;5035207;28;20130;-68
2021/11/20 13:35:20;;;;;;;44.10;23.15;;;;;;;;;;5034689;28;19917;-69
2021/11/20 13:37:53;;;;;;;44.88;26.15;;;;;;;;;;5035295;28;20040;-67
2021/11/20 13:40:24;;;;;;;45.35;25.35;;;;;;;;;;5034570;28;20117;-69
2021/11/20 13:42:50;;;;;;;45.05;25.92;;;;;;;;;;5033553;28;20022;-68
2021/11/20 13:45:16;;;;;;;44.08;26.48;;;;;;;;;;5034398;28;20025;-68
2021/11/20 13:47:46;;;;;;;41.17;24.05;;;;;;;;;;5034661;28;20486;-69
2021/11/20 13:50:12;;;;;;;41.15;24.73;;;;;;;;;;5033678;28;20044;-69
2021/11/20 13:52:38;;;;;;;48.15;27.02;;;;;;;;;;5033315;28;20048;-69
2021/11/20 13:55:05;;;;;;;43.15;26.00;;;;;;;;;;5034587;28;20030;-68
2021/11/20 13:57:31;;;;;;;44.38;26.42;;;;;;;;;;5032947;28;20549;-66
2021/11/20 14:00:12;;;;;;;45.58;26.67;;;;;;;;;;5032797;28;20030;-67
2021/11/20 14:02:49;;;;;;;49.15;25.85;;;;;;;;;;5034272;28;20027;-68
2021/11/20 14:05:15;;;;;;;44.88;25.35;;;;;;;;;;5035040;28;20053;-69
2021/11/20 14:07:41;;;;;;;42.33;22.95;;;;;;;;;;5033971;28;20397;-66
2021/11/20 14:10:13;;;;;;;47.75;25.38;;;;;;;;;;5034203;28;20032;-67
2021/11/20 14:13:00;;;;;;;45.65;26.75;;;;;;;;;;5034555;28;20025;-67
2021/11/20 14:15:26;;;;;;;47.05;27.00;;;;;;;;;;5034523;28;20397;-67
2021/11/20 14:18:00;;;;;;;43.28;26.20;;;;;;;;;;5032605;28;20053;-67
2021/11/20 14:20:26;;;;;;;44.35;24.95;;;;;;;;;;5034324;28;20040;-66
2021/11/20 14:22:52;;;;;;;45.58;25.10;;;;;;;;;;5033028;28;20029;-67
2021/11/20 14:25:23;;;;;;;45.55;26.25;;;;;;;;;;5032999;28;20022;-67
2021/11/20 14:27:59;;;;;;;45.85;24.45;;;;;;;;;;5034065;28;20029;-67
2021/11/20 14:30:25;;;;;;;48.17;26.13;;;;;;;;;;5033276;28;20515;-67